• Join FlightAware (Why Join?)
  • Login
  • US Flag 
05:58PM EDT


 

Airport Tracker/Info


-or-


 

Live Flight TrackerFlight Track Log ✈ OPT438 ✈ 14-Feb-2014 ✈ KMKC - KFLL

Flight Track Log - Related Links

Times and Time Zones

All times are in EST time to prevent confusion due to time zone crossing. See the OPT438 flight status page for this flight to view local times or setup timezone preferences in your user account.

Time Position Orientation Groundspeed Altitude Reporting Facility
EST Latitude Longitude Course Direction KTS MPH feet Rate Location/Type
03:10PM 39.1333 -94.5833 38° Northeast 180 207 1,600  Level Kansas City TRACON
03:11PM 39.1667 -94.5500 38° Northeast 230 265 4,600 3,540 Climbing Kansas City TRACON
03:12PM 39.1772 -94.4611 81° East 298 343 7,800 2,760 Climbing Kansas City Center
03:13PM 39.0931 -94.4342 166° South 337 388 10,400 2,700 Climbing Kansas City Center
03:14PM 39.0008 -94.4408 183° South 345 397 13,500 3,120 Climbing Kansas City Center
03:15PM 38.8906 -94.4486 183° South 353 406 16,900 3,000 Climbing Kansas City Center
03:16PM 38.7936 -94.4539 182° South 360 414 19,800 2,760 Climbing Kansas City Center
03:17PM 38.6814 -94.4628 184° South 360 414 22,700 2,100 Climbing Kansas City Center
03:18PM 38.5775 -94.4689 183° South 386 444 24,200 1,560 Climbing Kansas City Center
03:19PM 38.4497 -94.4767 183° South 407 468 26,000 1,500 Climbing Kansas City Center
03:20PM 38.3353 -94.4764 180° South 427 491 27,400 1,500 Climbing Kansas City Center
03:21PM 38.2044 -94.4058 157° South 452 520 29,200 1,500 Climbing Kansas City Center
03:22PM 38.1200 -94.2931 134° Southeast 455 524 30,500 1,080 Climbing Kansas City Center
03:23PM 38.0400 -94.1744 131° Southeast 461 531 31,500 960 Climbing Kansas City Center
03:24PM 37.9486 -94.0356 130° Southeast 468 539 32,600 1,020 Climbing Kansas City Center
03:25PM 37.8642 -93.9086 130° Southeast 471 542 33,700 960 Climbing Kansas City Center
03:26PM 37.7797 -93.7794 130° Southeast 474 545 34,700 960 Climbing Kansas City Center
03:27PM 37.6953 -93.6531 130° Southeast 472 543 35,700 960 Climbing Kansas City Center
03:29PM 37.5953 -93.5025 130° Southeast 467 537 36,700 720 Climbing Kansas City Center
03:30PM 37.5111 -93.3767 130° Southeast 467 537 37,300 480 Climbing Kansas City Center
03:31PM 37.4261 -93.2531 131° Southeast 467 537 37,800 480 Climbing Kansas City Center
03:32PM 37.3386 -93.1239 130° Southeast 476 548 38,400 540 Climbing Kansas City Center
03:33PM 37.2533 -92.9989 131° Southeast 475 547 39,000 240 Climbing Kansas City Center
03:34PM 37.1678 -92.8744 131° Southeast 473 544 39,000  Level Kansas City Center
03:35PM 37.0631 -92.7219 131° Southeast 477 549 39,000  Level Kansas City Center
03:36PM 36.9736 -92.5931 131° Southeast 483 556 39,000  Level Kansas City Center
03:37PM 36.8844 -92.4633 131° Southeast 489 563 39,000  Level Kansas City Center
03:38PM 36.7944 -92.3336 131° Southeast 491 565 39,000  Level Kansas City Center
03:39PM 36.7039 -92.2044 131° Southeast 493 567 39,000  Level Kansas City Center
03:40PM 36.6136 -92.0747 131° Southeast 493 567 39,000  Level Memphis Center
03:41PM 36.5244 -91.9481 131° Southeast 489 563 39,000  Level Memphis Center
03:42PM 36.4425 -91.8308 131° Southeast 489 563 39,000  Level Memphis Center
03:43PM 36.3389 -91.6850 131° Southeast 488 562 39,000  Level Memphis Center
03:44PM 36.2494 -91.5608 132° Southeast 485 558 39,000  Level Memphis Center
03:45PM 36.1608 -91.4361 131° Southeast 484 557 39,000  Level Memphis Center
03:46PM 36.0717 -91.3117 132° Southeast 484 557 39,000  Level Memphis Center
03:47PM 35.9825 -91.1869 131° Southeast 485 558 39,000  Level Memphis Center
03:48PM 35.8753 -91.0403 132° Southeast 482 555 39,000  Level Memphis Center
03:49PM 35.7858 -90.9150 131° Southeast 486 559 39,000  Level Memphis Center
03:50PM 35.6939 -90.7903 132° Southeast 491 565 39,000  Level Memphis Center
03:51PM 35.6000 -90.6606 132° Southeast 497 572 39,000  Level Memphis Center
03:52PM 35.5058 -90.5317 132° Southeast 502 578 39,000  Level Memphis Center
03:53PM 35.4092 -90.4025 133° Southeast 506 582 39,000  Level Memphis Center
03:54PM 35.3133 -90.2711 132° Southeast 511 588 39,000  Level Memphis Center
03:55PM 35.2000 -90.1183 132° Southeast 513 590 39,000  Level Memphis Center
03:56PM 35.1017 -89.9861 132° Southeast 517 595 39,000  Level Memphis Center
03:57PM 35.0036 -89.8550 132° Southeast 517 595 39,000  Level Memphis Center
03:58PM 34.9128 -89.7344 133° Southeast 518 596 39,000  Level Memphis Center
03:59PM 34.8014 -89.5872 133° Southeast 517 595 39,000  Level Memphis Center
04:00PM 34.7039 -89.4594 133° Southeast 511 588 39,000  Level Memphis Center
04:01PM 34.6083 -89.3339 133° Southeast 504 580 39,000  Level Memphis Center
04:02PM 34.5131 -89.2092 133° Southeast 500 575 39,000  Level Memphis Center
04:04PM 34.4194 -89.0850 132° Southeast 496 571 39,000  Level Memphis Center
04:05PM 34.3242 -88.9622 133° Southeast 495 570 39,000  Level Memphis Center
04:06PM 34.2131 -88.8189 133° Southeast 495 570 39,000  Level Memphis Center
04:07PM 34.1253 -88.7056 133° Southeast 498 573 39,000  Level Memphis Center
04:08PM 34.0308 -88.5831 133° Southeast 499 574 39,000  Level Memphis Center
04:09PM 33.9358 -88.4614 133° Southeast 500 575 39,000  Level Memphis Center
04:10PM 33.8225 -88.3167 133° Southeast 499 574 39,000  Level Memphis Center
04:11PM 33.7297 -88.1975 133° Southeast 496 571 39,000  Level Memphis Center
04:12PM 33.6350 -88.0783 134° Southeast 495 570 39,000  Level Memphis Center
04:13PM 33.5403 -87.9581 133° Southeast 497 572 39,000  Level Memphis Center
04:14PM 33.4444 -87.8375 134° Southeast 499 574 39,000  Level Memphis Center
04:15PM 33.3300 -87.6931 133° Southeast 502 578 39,000  Level Memphis Center
04:16PM 33.2100 -87.5494 135° Southeast 501 577 39,000  Level Atlanta Center
04:17PM 33.1153 -87.4267 133° Southeast 501 577 39,000  Level Atlanta Center
04:18PM 33.0183 -87.3039 133° Southeast 501 577 39,000  Level Atlanta Center
04:19PM 32.9375 -87.1994 133° Southeast 490 564 39,000  Level Atlanta Center
04:20PM 32.8383 -87.0822 135° Southeast 495 570 39,000  Level Atlanta Center
04:21PM 32.7411 -86.9603 133° Southeast 495 570 39,000  Level Atlanta Center
04:22PM 32.6478 -86.8436 134° Southeast 495 570 39,000  Level Atlanta Center
04:23PM 32.5461 -86.7247 135° Southeast 501 577 39,000  Level Atlanta Center
04:24PM 32.4544 -86.6111 134° Southeast 494 568 39,000  Level Atlanta Center
04:25PM 32.3589 -86.4928 134° Southeast 489 563 39,000  Level Atlanta Center
04:26PM 32.2425 -86.3594 136° Southeast 507 583 39,000  Level Atlanta Center
04:28PM 32.0458 -86.1253 135° Southeast 505 581 39,000  Level Jacksonville Center
04:29PM 31.9547 -86.0119 133° Southeast 510 587 39,000 180 Level Jacksonville Center
04:30PM 31.8656 -85.9086 135° Southeast 477 549 39,400 720 Climbing Jacksonville Center
04:31PM 31.7803 -85.8058 134° Southeast 450 518 40,500 780 Climbing Jacksonville Center
04:32PM 31.6969 -85.7056 134° Southeast 440 506 41,000 240 Climbing Jacksonville Center
04:33PM 31.6094 -85.6053 136° Southeast 435 501 41,000  Level Jacksonville Center
04:34PM 31.5197 -85.5028 136° Southeast 441 507 41,000  Level Jacksonville Center
04:35PM 31.4233 -85.4172 143° Southeast 441 507 41,000  Level Jacksonville Center
04:36PM 31.3267 -85.3294 142° Southeast 441 507 41,000  Level Jacksonville Center
04:37PM 31.2281 -85.2467 144° Southeast 436 502 41,000  Level Jacksonville Center
04:38PM 31.1294 -85.1594 143° Southeast 436 502 41,000  Level Jacksonville Center
04:39PM 31.0328 -85.0747 143° Southeast 443 510 41,000  Level Jacksonville Center
04:40PM 30.9342 -84.9900 144° Southeast 443 510 41,000  Level Jacksonville Center
04:41PM 30.8394 -84.9081 143° Southeast 443 510 41,000  Level Jacksonville Center
04:42PM 30.7447 -84.8264 143° Southeast 443 510 41,000  Level Jacksonville Center
04:43PM 30.6497 -84.7422 143° Southeast 433 498 41,000  Level Jacksonville Center
04:44PM 30.5550 -84.6633 144° Southeast 433 498 41,000  Level Jacksonville Center
04:45PM 30.4619 -84.5844 144° Southeast 433 498 41,000  Level Jacksonville Center
04:46PM 30.3692 -84.5056 144° Southeast 427 491 41,000  Level Jacksonville Center
04:47PM 30.2739 -84.4247 144° Southeast 427 491 41,000  Level Jacksonville Center
04:48PM 30.1789 -84.3439 144° Southeast 427 491 41,000  Level Jacksonville Center
04:49PM 30.0878 -84.2681 144° Southeast 421 484 41,000  Level Jacksonville Center
04:50PM 29.9928 -84.1853 143° Southeast 421 484 41,000 -60 Level Jacksonville Center
04:51PM 29.9078 -84.1194 146° Southeast 421 484 40,900  Descending Jacksonville Center
04:52PM 29.8125 -84.0392 144° Southeast 421 484 41,000  Climbing Jacksonville Center
04:53PM 29.7192 -83.9592 143° Southeast 421 484 41,000  Level Jacksonville Center
04:54PM 29.6217 -83.8769 144° Southeast 427 491 41,000  Level Jacksonville Center
04:55PM 29.5264 -83.7972 144° Southeast 427 491 41,000  Level Jacksonville Center
04:56PM 29.4289 -83.7175 145° Southeast 427 491 41,000  Level Jacksonville Center
04:57PM 29.3228 -83.6286 144° Southeast 433 498 41,000  Level Jacksonville Center
04:58PM 29.2272 -83.5469 143° Southeast 433 498 41,000  Level Jacksonville Center
04:59PM 29.1294 -83.4678 145° Southeast 433 498 41,000  Level Jacksonville Center
05:00PM 29.0339 -83.3889 144° Southeast 433 498 41,000  Level Jacksonville Center
05:01PM 28.9361 -83.3078 144° Southeast 433 498 41,000  Level Jacksonville Center
05:02PM 28.8381 -83.2267 144° Southeast 433 498 41,000  Level Jacksonville Center
05:03PM 28.7403 -83.1483 145° Southeast 433 498 41,000  Level Jacksonville Center
05:04PM 28.6464 -83.0675 143° Southeast 433 498 41,000  Level Jacksonville Center
05:05PM 28.5506 -82.9919 145° Southeast 433 498 41,000  Level Jacksonville Center
05:06PM 28.4650 -82.9233 145° Southeast 428 493 41,000  Level Jacksonville Center
05:07PM 28.3711 -82.8478 145° Southeast 428 493 41,000  Level Jacksonville Center
05:08PM 28.2731 -82.7678 144° Southeast 428 493 41,000  Level Jacksonville Center
05:10PM 28.0589 -82.5944 144° Southeast 422 486 41,000  Level Miami Center
05:11PM 27.9617 -82.5192 146° Southeast 422 486 41,000  Level Miami Center
05:12PM 27.8569 -82.4764 160° South 409 471 41,000  Level Miami Center
05:13PM 27.7397 -82.4331 162° South 403 464 41,000  Level Miami Center
05:14PM 27.6431 -82.3978 162° South 403 464 41,000 -600 Level Miami Center
05:15PM 27.5217 -82.3544 162° South 411 473 39,800 -1,500 Descending Miami Center
05:16PM 27.4064 -82.3117 162° South 423 487 38,100 -1,740 Descending Miami Center
05:17PM 27.2931 -82.2711 162° South 432 497 36,400 -1,800 Descending Miami Center
05:18PM 27.1903 -82.2336 162° South 432 497 34,600 -1,860 Descending Miami Center
05:19PM 27.0750 -82.1889 161° South 437 503 32,700 -2,100 Descending Miami Center
05:20PM 26.9450 -82.1456 163° South 437 503 30,500 -2,100 Descending Miami Center
05:21PM 26.8319 -82.1008 161° South 437 503 28,500 -2,040 Descending Miami Center
05:22PM 26.7350 -82.0106 140° Southeast 437 503 26,500 -2,040 Descending Miami Center
05:23PM 26.6575 -81.8956 127° Southeast 448 516 24,500 -2,040 Descending Miami Center
05:24PM 26.5822 -81.7808 126° Southeast 455 524 22,500 -2,100 Descending Miami Center
05:25PM 26.5067 -81.6642 126° Southeast 461 531 20,400 -2,040 Descending Miami Center
05:26PM 26.4433 -81.5594 124° Southeast 461 531 18,500 1,800 Descending Miami Center
05:27PM 26.3656 -81.4428 127° Southeast 439 505 24,000 -2,040 Climbing Miami Center
05:28PM 26.3000 -81.3383 125° Southeast 423 487 14,500 -5,700 Descending Miami Center
05:29PM 26.2547 -81.2486 119° Southeast 390 449 12,600 -1,680 Descending Miami Center
05:30PM 26.2111 -81.1661 120° Southeast 339 390 11,200 -1,320 Descending Miami Center
05:31PM 26.1675 -81.0858 121° Southeast 302 348 10,000 -1,320 Descending Miami Center
05:32PM 26.1536 -81.0667 129° Southeast 288 331 9,700 -1,320 Descending Miami Center
05:32PM 26.1278 -81.0150 119° Southeast 282 325 8,700 -960 Descending Miami Center
05:33PM 26.1047 -80.9403 109° East 270 311 8,000 -360 Descending Miami Center
05:34PM 26.0922 -80.8658 101° East 256 295 8,100  Climbing Miami Center
05:34PM 26.0925 -80.8633 83° East 257 296 8,000 -1,020 Descending Miami Center
05:35PM 26.0731 -80.8072 111° Southeast 220 253 7,200 -1,020 Descending Miami Center
05:35PM 26.0775 -80.7981 62° Northeast 236 272 7,000 -1,080 Descending Miami Center
05:36PM 26.0747 -80.7381 93° East 221 254 6,100 -1,020 Descending Miami Center
05:36PM 26.0772 -80.7289 73° East 222 255 6,000  Descending Miami Center
05:37PM 26.0769 -80.6617 90° East 219 252 6,100  Climbing Miami Center
05:37PM 26.0789 -80.6617 360° North 217 250 6,000  Descending Miami Center
05:38PM 26.0764 -80.6017 93° East 213 245 6,100  Climbing Miami Center
05:38PM 26.0786 -80.5900 78° East 217 250 6,000 -120 Descending Miami Center
05:39PM 26.0736 -80.5414 97° East 182 209 6,000  Level Miami Center
05:39PM 26.0781 -80.5322 62° Northeast 206 237 6,000 -900 Level Miami Center
05:40PM 26.0961 -80.4794 69° East 187 215 5,000 -1,020 Descending Miami Center
05:41PM 26.0806 -80.4353 111° Southeast 176 203 4,100 -900 Descending Miami Center
05:41PM 26.0828 -80.4283 70° East 166 191 4,100 -1,200 Level Miami Center
05:42PM 26.0775 -80.3864 98° East 138 159 2,900 -1,140 Descending Miami Center
05:43PM 26.0742 -80.3447 95° East 148 170 2,100 -420 Descending Miami Center
05:44PM 26.0775 -80.3008 85° East 141 162 2,100 -240 Level Miami Center
05:45PM 26.0744 -80.2522 94° East 138 159 1,600 -660 Descending Miami Center
05:46PM 26.0753 -80.2131 89° East 125 144 800 -780 Descending Miami Center
05:48PM 26.0667 -80.1500 180° South  Level FlightAware Approximate
05:55PM 26.0726 -80.1527 180° South  Level Estimated
05:56PM 26.0667 -80.1500 180° South  Level FlightAware Approximate